Data for 11/18/2014

Time Sea-Level Adjusted Pressure Absolute Pressure Temperature Relative Humidity Dew Point   
(mb) (inHg) (mb) (inHg) (C) (F) (%) (C) (F)
00:05 1024 30.24 853 25.19 -9.2 15.4 74 -13 8.6
00:10 1024 30.24 853 25.19 -10 14 75 -13.6 7.4
00:15 1024 30.24 853 25.19 -10.6 12.8 78 -13.7 7.3
00:20 1024 30.24 853 25.19 -10.4 13.3 79 -13.4 7.8
00:25 1024 30.24 853 25.19 -10.4 13.3 81 -13 8.7
00:30 1024 30.24 853 25.19 -10.3 13.5 85 -12.3 9.8
00:35 1024 30.24 853 25.19 -10.1 13.7 82 -12.6 9.3
00:40 1023 30.21 853 25.19 -9.9 14.2 81 -12.5 9.5
00:45 1024 30.24 853 25.19 -9.5 14.9 81 -12.2 10
00:50 1024 30.24 853 25.19 -9.4 15.2 80 -12.1 10.2
00:55 1023 30.21 853 25.19 -9.6 14.8 79 -12.5 9.4
01:00 1023 30.21 853 25.19 -9.7 14.6 78 -12.8 8.9
01:05 1023 30.21 852 25.16 -10.2 13.6 81 -12.8 8.9
01:10 1023 30.21 852 25.16 -10 14 80 -12.8 9
01:15 1023 30.21 852 25.16 -10 14.1 80 -12.8 8.9
01:20 1023 30.21 852 25.16 -10 14.1 76 -13.4 7.9
01:25 1023 30.21 852 25.16 -10 13.9 76 -13.5 7.7
01:30 1023 30.21 852 25.16 -10 14.1 75 -13.5 7.6
01:35 1023 30.21 852 25.16 -9.9 14.2 76 -13.3 8
01:40 1023 30.21 852 25.16 -9.9 14.2 77 -13.2 8.2
01:45 1023 30.21 852 25.16 -10.2 13.6 79 -13.2 8.2
01:50 1023 30.21 852 25.16 -10.5 13.1 79 -13.5 7.7
01:55 1023 30.21 852 25.16 -10.7 12.7 81 -13.4 7.9
02:00 1023 30.21 852 25.16 -10.6 12.8 82 -13.2 8.2
02:05 1023 30.21 852 25.16 -10.8 12.5 83 -13.2 8.3
02:10 1023 30.21 852 25.16 -10.2 13.6 85 -12.3 9.8
02:15 1023 30.21 852 25.16 -9.8 14.4 82 -12.4 9.8
02:20 1023 30.21 852 25.16 -9.8 14.3 87 -11.5 11.2
02:25 1023 30.21 852 25.16 -9.5 14.8 83 -11.9 10.5
02:30 1023 30.21 852 25.16 -9.6 14.7 83 -11.9 10.5
02:35 1023 30.21 852 25.16 -9.4 15 88 -11.1 12.1
02:40 1023 30.21 852 25.16 -9 15.8 81 -11.7 10.9
02:45 1023 30.21 852 25.16 -9.1 15.7 80 -11.9 10.6
02:50 1023 30.21 852 25.16 -9.4 15.2 81 -12 10.4
02:55 1023 30.21 852 25.16 -9.4 15 81 -12.1 10.2
03:00 1023 30.21 852 25.16 -9.7 14.6 82 -12.3 9.9
03:05 1023 30.21 852 25.16 -10 14 82 -12.5 9.5
03:10 1023 30.21 852 25.16 -9.9 14.1 82 -12.5 9.5
03:15 1023 30.21 852 25.16 -9.7 14.5 82 -12.3 9.9
03:20 1023 30.21 852 25.16 -10.1 13.9 82 -12.5 9.4
03:25 1023 30.21 852 25.16 -10.4 13.2 85 -12.6 9.4
03:30 1023 30.21 852 25.16 -10.2 13.6 84 -12.4 9.6
03:35 1023 30.21 852 25.16 -9.8 14.4 83 -12.2 10.1
03:40 1023 30.21 852 25.16 -9.8 14.4 81 -12.4 9.6
03:45 1023 30.21 852 25.16 -9.9 14.3 79 -12.8 8.9
03:50 1023 30.21 852 25.16 -9.5 15 82 -12 10.4
03:55 1023 30.21 852 25.16 -9.5 14.9 82 -12.1 10.2
04:00 1023 30.21 852 25.16 -9.6 14.8 82 -12.1 10.2
04:05 1023 30.21 852 25.16 -9.6 14.8 82 -12.1 10.2
04:10 1023 30.21 852 25.16 -9.6 14.8 82 -12.1 10.2
04:15 1023 30.21 852 25.16 -9.5 14.9 82 -12 10.4
04:20 1023 30.21 852 25.16 -9.4 15 82 -12 10.4
04:25 1023 30.21 852 25.16 -9.3 15.3 80 -12.2 10.1
04:30 1023 30.21 852 25.16 -9.5 15 81 -12.1 10.3
04:35 1023 30.21 852 25.16 -9.5 15 81 -12.1 10.2
04:40 1023 30.21 852 25.16 -9.2 15.4 76 -12.7 9.2
04:45 1023 30.21 852 25.16 -9.1 15.6 75 -12.7 9.1
04:50 1023 30.21 852 25.16 -9 15.8 75 -12.7 9.1
04:55 1023 30.21 852 25.16 -8.9 15.9 76 -12.5 9.5
05:00 1023 30.21 852 25.16 -8.8 16.1 74 -12.6 9.2
05:05 1023 30.21 852 25.16 -8.8 16.2 73 -12.8 9
05:10 1023 30.21 852 25.16 -8.8 16.1 74 -12.7 9.2
05:15 1023 30.21 852 25.16 -8.9 15.9 75 -12.6 9.4
05:20 1023 30.21 852 25.16 -9 15.7 75 -12.7 9.2
05:25 1023 30.21 852 25.16 -9 15.8 76 -12.5 9.4
05:30 1023 30.21 852 25.16 -8.8 16.2 74 -12.6 9.3
05:35 1022 30.18 852 25.16 -8.4 16.9 73 -12.4 9.6
05:40 1022 30.18 852 25.16 -8.4 16.8 73 -12.4 9.7
05:45 1022 30.18 852 25.16 -8.6 16.6 74 -12.4 9.7
05:50 1022 30.18 852 25.16 -8.5 16.7 74 -12.4 9.6
05:55 1022 30.18 852 25.16 -8.4 16.9 74 -12.3 9.9
06:00 1022 30.18 852 25.16 -8.3 17.1 72 -12.5 9.4
06:05 1022 30.18 852 25.16 -8.2 17.3 71 -12.5 9.4
06:10 1022 30.18 852 25.16 -8.6 16.6 74 -12.4 9.7
06:15 1022 30.18 851 25.13 -8.4 17 72 -12.5 9.5
06:20 1022 30.18 852 25.16 -8.3 17.1 73 -12.2 10
06:25 1022 30.18 851 25.13 -8.6 16.6 74 -12.4 9.7
06:30 1022 30.18 851 25.13 -8.7 16.4 76 -12.2 10
06:35 1022 30.18 851 25.13 -8.7 16.4 75 -12.3 9.9
06:40 1022 30.18 851 25.13 -9 15.8 76 -12.6 9.4
06:45 1022 30.18 851 25.13 -8.9 16 75 -12.5 9.4
06:50 1022 30.18 851 25.13 -8.6 16.5 74 -12.5 9.5
06:55 1022 30.18 851 25.13 -8.5 16.7 73 -12.5 9.4
07:00 1022 30.18 851 25.13 -8.9 16.1 74 -12.6 9.2
07:05 1022 30.18 851 25.13 -8.9 16.1 74 -12.7 9.2
07:10 1022 30.18 851 25.13 -8.7 16.3 74 -12.5 9.4
07:15 1022 30.18 851 25.13 -8.8 16.3 74 -12.7 9.2
07:20 1022 30.18 851 25.13 -8.8 16.1 74 -12.7 9.1
07:25 1022 30.18 851 25.13 -8.8 16.3 74 -12.6 9.3
07:30 1022 30.18 851 25.13 -8.4 16.9 72 -12.7 9.2
07:35 1022 30.18 851 25.13 -7.9 17.9 69 -12.7 9.2
07:40 1022 30.18 851 25.13 -7.8 17.9 69 -12.5 9.5
07:45 1022 30.18 851 25.13 -8 17.7 70 -12.6 9.4
07:50 1022 30.18 851 25.13 -7.9 17.7 71 -12.3 9.8
07:55 1022 30.18 851 25.13 -8.2 17.3 72 -12.4 9.7
08:00 1022 30.18 851 25.13 -8.6 16.5 74 -12.5 9.5
08:05 1022 30.18 851 25.13 -8.9 15.9 75 -12.6 9.3
08:10 1022 30.18 851 25.13 -8.7 16.3 74 -12.6 9.3
08:15 1022 30.18 851 25.13 -8.6 16.5 74 -12.5 9.6
08:20 1022 30.18 851 25.13 -8.6 16.6 74 -12.4 9.6
08:25 1022 30.18 851 25.13 -8.4 16.8 74 -12.2 10
08:30 1022 30.18 851 25.13 -8.4 16.9 74 -12.2 10.1
08:35 1022 30.18 851 25.13 -8.4 16.9 76 -11.9 10.7
08:40 1022 30.18 851 25.13 -8.3 17.1 76 -11.8 10.7
08:45 1022 30.18 851 25.13 -8.2 17.3 73 -12.1 10.2
08:50 1022 30.18 851 25.13 -7.9 17.9 73 -11.9 10.7
08:55 1022 30.18 851 25.13 -7.9 17.9 70 -12.4 9.7
09:00 1022 30.18 851 25.13 -7.8 18 73 -11.9 10.6
09:05 1022 30.18 851 25.13 -7.7 18.2 70 -12.3 9.9
09:10 1022 30.18 851 25.13 -7.6 18.3 72 -11.8 10.7
09:15 1022 30.18 851 25.13 -7.6 18.4 70 -12.1 10.2
09:20 1022 30.18 851 25.13 -7.6 18.3 72 -11.9 10.6
09:25 1022 30.18 851 25.13 -7.5 18.5 71 -11.9 10.5
09:30 1022 30.18 851 25.13 -7.2 19.1 69 -11.9 10.6
09:35 1022 30.18 851 25.13 -7.1 19.2 68 -12 10.4
09:40 1022 30.18 851 25.13 -6.4 20.5 65 -11.9 10.6
09:45 1022 30.18 851 25.13 -6.4 20.4 69 -11.3 11.7
09:50 1022 30.18 851 25.13 -6.6 20.1 66 -11.9 10.5
09:55 1022 30.18 851 25.13 -6 21.2 64 -11.7 10.9
10:00 1022 30.18 851 25.13 -5.7 21.7 64 -11.4 11.4
10:05 1022 30.18 851 25.13 -5.5 22.1 64 -11.4 11.5
10:10 1022 30.18 851 25.13 -5.5 22.2 63 -11.4 11.5
10:15 1022 30.18 851 25.13 -5.4 22.3 65 -11 12.2
10:20 1022 30.18 851 25.13 -5.6 21.9 67 -10.7 12.7
10:25 1022 30.18 851 25.13 -5.7 21.7 70 -10.3 13.4
10:30 1022 30.18 851 25.13 -5.5 22.2 65 -11.1 12
10:35 1022 30.18 851 25.13 -5.1 22.9 64 -10.9 12.5
10:40 1022 30.18 851 25.13 -4.8 23.3 63 -10.9 12.4
10:45 1022 30.18 851 25.13 -4.6 23.8 66 -10 14
10:50 1022 30.18 851 25.13 -4.6 23.7 63 -10.7 12.8
10:55 1022 30.18 851 25.13 -4.7 23.6 62 -11 12.2
11:00 1022 30.18 851 25.13 -4.6 23.8 60 -11.2 11.9
11:05 1022 30.18 851 25.13 -4.3 24.2 60 -11.1 12.1
11:10 1022 30.18 851 25.13 -4.2 24.5 59 -11 12.2
11:15 1022 30.18 851 25.13 -3.8 25.1 57 -11.2 11.8
11:20 1022 30.18 851 25.13 -3.6 25.4 57 -10.9 12.3
11:25 1022 30.18 852 25.16 -3.2 26.3 58 -10.2 13.6
11:30 1022 30.18 852 25.16 -3.3 26.1 63 -9.5 15
11:35 1022 30.18 852 25.16 -3.5 25.7 63 -9.5 14.9
11:40 1022 30.18 852 25.16 -3.7 25.4 65 -9.4 15.1
11:45 1022 30.18 852 25.16 -3.8 25.2 63 -9.8 14.3
11:50 1022 30.18 852 25.16 -3.8 25.2 63 -9.9 14.2
11:55 1022 30.18 852 25.16 -3.7 25.4 62 -9.9 14.1
12:00 1022 30.18 852 25.16 -3.5 25.6 63 -9.6 14.8
12:05 1022 30.18 851 25.13 -3.4 25.9 60 -10 14
12:10 1022 30.18 851 25.13 -3.2 26.2 61 -9.8 14.4
12:15 1022 30.18 851 25.13 -3 26.6 60 -9.8 14.4
12:20 1022 30.18 851 25.13 -3.3 26.1 61 -9.8 14.4
12:25 1022 30.18 851 25.13 -3 26.6 62 -9.4 15.1
12:30 1022 30.18 851 25.13 -2.6 27.3 59 -9.4 15
12:35 1022 30.18 851 25.13 -2.2 28 58 -9.4 15
12:40 1022 30.18 851 25.13 -2.2 28 59 -9.3 15.3
12:45 1022 30.18 851 25.13 -2.5 27.6 58 -9.7 14.6
12:50 1022 30.18 851 25.13 -2.4 27.7 59 -9.4 15.1
12:55 1022 30.18 851 25.13 -2.2 28 57 -9.6 14.7
13:00 1022 30.18 851 25.13 -2 28.4 59 -9 15.8
13:05 1022 30.18 851 25.13 -1.9 28.5 57 -9.3 15.3
13:10 1021 30.15 851 25.13 -1.8 28.8 57 -9.1 15.6
13:15 1021 30.15 851 25.13 -2 28.4 58 -9.2 15.5
13:20 1021 30.15 850 25.1 -1.9 28.5 59 -8.8 16.1
13:25 1021 30.15 850 25.1 -1.8 28.8 57 -9.3 15.2
13:30 1021 30.15 851 25.13 -2.2 28 60 -8.9 15.9
13:35 1021 30.15 850 25.1 -2.4 27.7 59 -9.3 15.3
13:40 1021 30.15 850 25.1 -2.6 27.4 60 -9.2 15.4
13:45 1021 30.15 850 25.1 -2.3 27.9 59 -9.3 15.3
13:50 1021 30.15 851 25.13 -1.9 28.6 58 -9 15.7
13:55 1022 30.18 851 25.13 -1.7 28.9 57 -9.1 15.5
14:00 1022 30.18 851 25.13 -1.8 28.7 58 -9.1 15.6
14:05 1022 30.18 851 25.13 -1.5 29.2 57 -9.1 15.7
14:10 1021 30.15 851 25.13 -1.5 29.2 57 -9 15.9
14:15 1021 30.15 851 25.13 -1.5 29.2 58 -8.9 16
14:20 1022 30.18 851 25.13 -1.3 29.6 57 -8.8 16.2
14:25 1022 30.18 851 25.13 -1.1 30 55 -9.1 15.6
14:30 1022 30.18 851 25.13 -1.2 29.9 58 -8.4 16.8
14:35 1022 30.18 851 25.13 -1.2 29.8 56 -9 15.8
14:40 1021 30.15 851 25.13 -1 30.1 56 -8.8 16.2
14:45 1022 30.18 851 25.13 -1.1 30 57 -8.6 16.5
14:50 1022 30.18 851 25.13 -1.3 29.7 54 -9.4 15.1
14:55 1021 30.15 851 25.13 -1.2 29.9 54 -9.3 15.3
15:00 1021 30.15 851 25.13 -1.8 28.7 56 -9.4 15.1
15:05 1021 30.15 851 25.13 -2.2 28.1 57 -9.6 14.7
15:10 1021 30.15 851 25.13 -1.6 29 56 -9.2 15.4
15:15 1021 30.15 851 25.13 -1.5 29.4 55 -9.3 15.2
15:20 1021 30.15 850 25.1 -1.6 29.2 55 -9.5 14.9
15:25 1021 30.15 850 25.1 -1.7 28.9 55 -9.6 14.8
15:30 1021 30.15 850 25.1 -1.8 28.8 57 -9.3 15.3
15:35 1021 30.15 851 25.13 -1.5 29.3 57 -8.9 15.9
15:40 1021 30.15 851 25.13 -1.1 30.1 54 -9.3 15.3
15:45 1021 30.15 850 25.1 -0.8 30.5 52 -9.4 15
15:50 1021 30.15 850 25.1 -0.8 30.5 54 -9.1 15.7
15:55 1021 30.15 850 25.1 -0.7 30.7 54 -9 15.9
16:00 1021 30.15 850 25.1 -1.1 30 55 -9 15.8
16:05 1021 30.15 850 25.1 -1.5 29.3 56 -9.1 15.7
16:10 1021 30.15 850 25.1 -1.6 29.2 58 -8.9 16.1
16:15 1021 30.15 850 25.1 -1.4 29.5 57 -8.9 16
16:20 1021 30.15 850 25.1 -1.3 29.7 56 -8.9 16
16:25 1021 30.15 850 25.1 -1.4 29.4 57 -9 15.8
16:30 1021 30.15 850 25.1 -1.6 29.2 57 -9.1 15.6
16:35 1021 30.15 850 25.1 -1.5 29.3 57 -8.9 16
16:40 1021 30.15 850 25.1 -1.5 29.4 57 -8.9 16
16:45 1021 30.15 850 25.1 -1.4 29.6 55 -9.3 15.2
16:50 1021 30.15 850 25.1 -1.3 29.7 55 -9.1 15.6
16:55 1021 30.15 850 25.1 -1.3 29.7 55 -9.2 15.5
17:00 1021 30.15 850 25.1 -1.3 29.6 57 -8.8 16.2
17:05 1021 30.15 850 25.1 -1.4 29.5 57 -8.9 15.9
17:10 1021 30.15 850 25.1 -1.5 29.3 55 -9.3 15.2
17:15 1021 30.15 850 25.1 -1.5 29.2 56 -9.1 15.6
17:20 1021 30.15 850 25.1 -1.5 29.2 58 -8.8 16.2
17:25 1021 30.15 850 25.1 -1.6 29 60 -8.3 17
17:30 1021 30.15 850 25.1 -1.8 28.7 61 -8.3 17.1
17:35 1021 30.15 850 25.1 -1.9 28.6 63 -8 17.5
17:40 1021 30.15 850 25.1 -2 28.5 62 -8.3 17
17:45 1021 30.15 850 25.1 -2 28.4 61 -8.6 16.4
17:50 1021 30.15 850 25.1 -1.9 28.5 57 -9.3 15.3
17:55 1021 30.15 850 25.1 -1.7 28.9 57 -9.2 15.5
18:00 1021 30.15 850 25.1 -1.6 29.2 54 -9.8 14.4
18:05 1021 30.15 850 25.1 -1.5 29.2 54 -9.6 14.6
18:10 1021 30.15 850 25.1 -1.5 29.4 54 -9.7 14.6
18:15 1021 30.15 850 25.1 -1.5 29.2 52 -10.1 13.9
18:20 1021 30.15 850 25.1 -1.6 29.1 58 -8.9 15.9
18:25 1021 30.15 850 25.1 -1.7 28.9 56 -9.4 15.1
18:30 1021 30.15 850 25.1 -1.7 29 59 -8.6 16.5
18:35 1021 30.15 850 25.1 -1.7 28.9 59 -8.8 16.1
18:40 1021 30.15 850 25.1 -1.8 28.8 59 -8.8 16.2
18:45 1021 30.15 850 25.1 -1.6 29.1 60 -8.3 17
18:50 1021 30.15 850 25.1 -1.8 28.8 64 -7.6 18.3
18:55 1021 30.15 850 25.1 -2.1 28.2 65 -7.8 17.9
19:00 1021 30.15 850 25.1 -2.3 27.9 66 -7.8 17.9
19:05 1021 30.15 850 25.1 -2.5 27.5 66 -8 17.7
19:10 1021 30.15 850 25.1 -2.7 27.2 67 -7.9 17.7
19:15 1021 30.15 850 25.1 -2.8 27 68 -7.9 17.8
19:20 1021 30.15 850 25.1 -2.8 26.9 67 -8.2 17.2
19:25 1021 30.15 850 25.1 -2.9 26.8 67 -8.1 17.4
19:30 1021 30.15 850 25.1 -2.8 27 65 -8.4 16.9
19:35 1021 30.15 850 25.1 -2.8 27 67 -8.1 17.4
19:40 1021 30.15 850 25.1 -2.7 27.1 67 -8 17.6
19:45 1021 30.15 850 25.1 -2.8 27 66 -8.2 17.3
19:50 1021 30.15 850 25.1 -2.8 26.9 69 -7.8 17.9
19:55 1021 30.15 850 25.1 -2.9 26.7 67 -8.3 17
20:00 1020 30.12 850 25.1 -2.8 26.9 68 -7.9 17.8
20:05 1020 30.12 850 25.1 -2.9 26.7 69 -7.8 18
20:10 1021 30.15 850 25.1 -3 26.7 71 -7.5 18.5
20:15 1021 30.15 850 25.1 -3 26.6 68 -8.1 17.3
20:20 1021 30.15 850 25.1 -3.1 26.5 70 -7.7 18.1
20:25 1021 30.15 850 25.1 -3.2 26.2 70 -7.9 17.7
20:30 1021 30.15 850 25.1 -3.3 26 69 -8.2 17.2
20:35 1020 30.12 850 25.1 -3.3 26 67 -8.6 16.6
20:40 1020 30.12 850 25.1 -3.3 26.1 69 -8.2 17.3
20:45 1020 30.12 850 25.1 -3.3 26 67 -8.5 16.6
20:50 1020 30.12 850 25.1 -3.3 26.1 68 -8.4 16.9
20:55 1020 30.12 850 25.1 -3.3 26 65 -9 15.8
21:00 1020 30.12 850 25.1 -3 26.6 65 -8.8 16.2
21:05 1020 30.12 849 25.07 -2.7 27.1 59 -9.7 14.6
21:10 1020 30.12 850 25.1 -2.7 27.2 63 -8.8 16.1
21:15 1020 30.12 849 25.07 -2.8 27 61 -9.2 15.5
21:20 1020 30.12 850 25.1 -2.7 27.2 65 -8.4 17
21:25 1020 30.12 850 25.1 -3.1 26.4 68 -8.2 17.2
21:30 1020 30.12 850 25.1 -3.4 25.9 66 -8.8 16.2
21:35 1020 30.12 850 25.1 -3.3 26.1 67 -8.5 16.6
21:40 1021 30.15 850 25.1 -3.2 26.2 67 -8.4 16.8
21:45 1021 30.15 850 25.1 -3.2 26.3 65 -8.9 15.9
21:50 1021 30.15 850 25.1 -2.9 26.7 64 -8.9 16
21:55 1021 30.15 850 25.1 -2.7 27.2 63 -8.9 16.1
22:00 1021 30.15 850 25.1 -2.5 27.5 61 -9.1 15.6
22:05 1021 30.15 850 25.1 -2.3 27.8 60 -9 15.8
22:10 1020 30.12 850 25.1 -2.3 27.9 62 -8.6 16.5
22:15 1020 30.12 850 25.1 -2.4 27.7 62 -8.8 16.1
22:20 1021 30.15 850 25.1 -2.4 27.7 62 -8.7 16.3
22:25 1021 30.15 850 25.1 -2.5 27.5 67 -7.9 17.8
22:30 1021 30.15 850 25.1 -2.8 26.9 70 -7.7 18.2
22:35 1021 30.15 850 25.1 -2.9 26.7 71 -7.5 18.6
22:40 1021 30.15 850 25.1 -2.9 26.8 62 -9.1 15.6
22:45 1021 30.15 850 25.1 -2.5 27.5 63 -8.7 16.3
22:50 1021 30.15 850 25.1 -2.4 27.6 67 -7.8 17.9
22:55 1021 30.15 850 25.1 -2.6 27.3 67 -7.9 17.7
23:00 1021 30.15 850 25.1 -2.9 26.8 72 -7.3 18.8
23:05 1021 30.15 850 25.1 -3.2 26.3 72 -7.5 18.6
23:10 1021 30.15 850 25.1 -3.3 26.1 75 -7.1 19.3
23:15 1021 30.15 850 25.1 -3.4 25.9 77 -6.9 19.5
23:20 1021 30.15 850 25.1 -3.3 26 76 -6.9 19.5
23:25 1021 30.15 850 25.1 -3.2 26.2 72 -7.7 18.2
23:30 1021 30.15 850 25.1 -3 26.6 70 -7.8 18
23:35 1021 30.15 850 25.1 -2.8 26.9 69 -7.8 18
23:40 1021 30.15 850 25.1 -2.8 26.9 70 -7.5 18.4
23:45 1021 30.15 850 25.1 -2.7 27.1 68 -7.9 17.7
23:50 1021 30.15 850 25.1 -2.4 27.6 68 -7.6 18.4
23:55 1021 30.15 850 25.1 -2.4 27.6 68 -7.5 18.6
24:00 1021 30.15 850 25.1 -2.3 27.8 67 -7.6 18.3